createdAt,value
2022-11-28T00:04:37.187Z,15.8
2022-11-28T00:09:37.086Z,16
2022-11-28T00:14:37.041Z,17
2022-11-28T00:19:37.164Z,17
2022-11-28T00:24:37.014Z,17
2022-11-28T00:29:37.031Z,17.1
2022-11-28T00:34:37.080Z,17
2022-11-28T00:39:37.066Z,16.1
2022-11-28T00:44:37.071Z,16.1
2022-11-28T00:49:37.046Z,16.1
2022-11-28T00:54:37.035Z,16.2
2022-11-28T00:59:37.084Z,16.3
2022-11-28T01:04:37.073Z,16.2
2022-11-28T01:09:37.321Z,16.3
2022-11-28T01:14:37.117Z,16.3
2022-11-28T01:19:37.582Z,16.4
2022-11-28T01:24:37.138Z,16.4
2022-11-28T01:29:37.098Z,16.1
2022-11-28T01:34:37.153Z,16.1
2022-11-28T01:39:37.073Z,16.1
2022-11-28T01:44:37.050Z,16.1
2022-11-28T01:49:37.087Z,16.1
2022-11-28T01:54:37.059Z,16.1
2022-11-28T01:59:37.145Z,16.3
2022-11-28T02:04:37.066Z,16.3
2022-11-28T02:09:37.088Z,16.1
2022-11-28T02:14:37.178Z,16.1
2022-11-28T02:19:37.065Z,15.5
2022-11-28T02:24:37.065Z,15.5
2022-11-28T02:29:37.187Z,15.2
2022-11-28T02:34:37.084Z,15.2
2022-11-28T02:39:37.094Z,15.2
2022-11-28T02:44:37.073Z,15.1
2022-11-28T02:49:37.047Z,15.1
2022-11-28T02:54:37.040Z,16.1
2022-11-28T02:59:37.136Z,15.9
2022-11-28T03:04:37.099Z,15.9
2022-11-28T03:09:37.062Z,15.3
2022-11-28T03:14:37.035Z,15.9
2022-11-28T03:19:37.111Z,15.9
2022-11-28T03:24:37.088Z,15.9
2022-11-28T03:29:37.096Z,15.9
2022-11-28T03:34:37.189Z,16
2022-11-28T03:39:37.053Z,16.1
2022-11-28T03:44:37.071Z,16.5
2022-11-28T03:49:37.093Z,17.2
2022-11-28T03:54:37.104Z,17.2
2022-11-28T03:59:37.094Z,17.3
2022-11-28T04:04:37.096Z,17.3
2022-11-28T04:09:37.091Z,17.3
2022-11-28T04:14:37.077Z,17.3
2022-11-28T04:19:37.074Z,17.3
2022-11-28T04:24:37.037Z,17.3
2022-11-28T04:29:37.047Z,17.7
2022-11-28T04:34:37.116Z,17.7
2022-11-28T04:39:37.126Z,17.5
2022-11-28T04:44:37.121Z,17.5
2022-11-28T04:49:37.071Z,17.7
2022-11-28T04:54:37.039Z,17.9
2022-11-28T04:59:37.170Z,17.9
2022-11-28T05:04:37.095Z,17.5
2022-11-28T05:09:37.081Z,17.3
2022-11-28T05:14:37.378Z,17.3
2022-11-28T05:19:37.134Z,16.7
2022-11-28T05:24:37.139Z,16.7
2022-11-28T05:29:37.214Z,16.7
2022-11-28T05:34:37.062Z,16.7
2022-11-28T05:39:37.089Z,16.8
2022-11-28T05:44:37.049Z,16.8
2022-11-28T05:49:37.091Z,16.8
2022-11-28T05:54:37.190Z,16.8
2022-11-28T05:59:37.130Z,16.8
2022-11-28T06:04:37.277Z,16.8
2022-11-28T06:09:37.110Z,16.8
2022-11-28T06:14:37.069Z,16.8
2022-11-28T06:19:37.261Z,16.9
2022-11-28T06:24:37.085Z,16.9
2022-11-28T06:29:37.158Z,16.9
2022-11-28T06:34:37.108Z,17.4
2022-11-28T06:39:37.136Z,17.5
2022-11-28T06:44:37.090Z,17.5
2022-11-28T06:49:37.078Z,17.5
2022-11-28T06:54:37.079Z,17.6
2022-11-28T06:59:37.157Z,17.6
2022-11-28T07:04:37.102Z,18.2
2022-11-28T07:09:37.061Z,19.6
2022-11-28T07:14:37.109Z,19.6
2022-11-28T07:19:37.106Z,19.6
2022-11-28T07:24:37.068Z,19.2
2022-11-28T07:29:37.116Z,19.2
2022-11-28T07:34:37.135Z,18.7
2022-11-28T07:39:37.077Z,18.7
2022-11-28T07:44:37.071Z,17.8
2022-11-28T07:49:37.099Z,17.5
2022-11-28T07:54:37.164Z,17.4
2022-11-28T07:59:37.145Z,17
2022-11-28T08:04:37.177Z,17
2022-11-28T08:09:37.196Z,17
2022-11-28T08:14:37.118Z,17.1
2022-11-28T08:19:38.090Z,17.1
2022-11-28T08:24:37.090Z,17
2022-11-28T08:29:37.104Z,17
2022-11-28T08:34:37.116Z,17.1
2022-11-28T08:39:37.111Z,17
2022-11-28T08:44:37.214Z,16.5
2022-11-28T08:49:37.157Z,16.4
2022-11-28T08:54:37.083Z,16.4
2022-11-28T08:59:37.155Z,16.5
2022-11-28T09:04:37.245Z,16.5
2022-11-28T09:09:37.134Z,16.4
2022-11-28T09:14:37.144Z,15.9
2022-11-28T09:19:37.076Z,15.9
2022-11-28T09:24:37.086Z,16
2022-11-28T09:29:37.163Z,16
2022-11-28T09:34:37.122Z,15.8
2022-11-28T09:39:57.195Z,15.6
2022-11-28T09:44:37.134Z,15.6
2022-11-28T09:49:43.408Z,15.8
2022-11-28T09:54:37.151Z,15.3
2022-11-28T09:59:37.344Z,15
2022-11-28T10:04:37.194Z,15
2022-11-28T10:09:37.158Z,15.3
2022-11-28T10:14:37.205Z,16.3
2022-11-28T10:19:54.113Z,16.4
2022-11-28T10:24:37.137Z,16.3
2022-11-28T10:29:37.118Z,16.3
2022-11-28T10:34:37.153Z,16.9
2022-11-28T10:39:37.119Z,16.3
2022-11-28T10:44:37.139Z,16.3
2022-11-28T10:49:37.115Z,16.9
2022-11-28T10:54:37.356Z,16.9
2022-11-28T10:59:37.163Z,17.8
2022-11-28T11:04:37.225Z,17.8
2022-11-28T11:09:37.338Z,17.8
2022-11-28T11:14:37.122Z,18.2
2022-11-28T11:19:37.168Z,17.8
2022-11-28T11:24:37.429Z,17.8
2022-11-28T11:29:37.124Z,18.2
2022-11-28T11:34:37.138Z,17.4
2022-11-28T11:39:37.159Z,17.4
2022-11-28T11:44:37.139Z,17.7
2022-11-28T11:49:37.177Z,17.7
2022-11-28T11:54:37.205Z,17.7
2022-11-28T11:59:37.276Z,17.2
2022-11-28T12:04:47.177Z,16.8
2022-11-28T12:09:37.110Z,16.6
2022-11-28T12:14:37.132Z,16.7
2022-11-28T12:19:37.127Z,16.7
2022-11-28T12:24:37.133Z,16.6
2022-11-28T12:29:37.171Z,16.6
2022-11-28T12:34:37.155Z,16.7
2022-11-28T12:39:37.158Z,16.7
2022-11-28T12:44:37.189Z,16.8
2022-11-28T12:49:37.154Z,18
2022-11-28T12:54:37.182Z,18
2022-11-28T12:59:37.543Z,18.5
2022-11-28T13:04:37.237Z,18.5
2022-11-28T13:09:37.247Z,18.9
2022-11-28T13:14:37.261Z,18.5
2022-11-28T13:19:37.228Z,18.5
2022-11-28T13:24:37.169Z,18.4
2022-11-28T13:29:37.262Z,18.4
2022-11-28T13:34:37.178Z,17.9
2022-11-28T13:39:37.181Z,17.9
2022-11-28T13:44:37.144Z,17.9
2022-11-28T13:49:37.109Z,17.9
2022-11-28T13:54:37.421Z,18.2
2022-11-28T13:59:37.331Z,18.4
2022-11-28T14:04:38.885Z,18.6
2022-11-28T14:09:37.384Z,18.9
2022-11-28T14:14:37.287Z,18.9
2022-11-28T14:19:37.227Z,19.2
2022-11-28T14:24:37.365Z,19.2
2022-11-28T14:29:37.154Z,19.6
2022-11-28T14:34:37.141Z,19.6
2022-11-28T14:39:37.153Z,19.8
2022-11-28T14:44:37.209Z,19.8
2022-11-28T14:49:37.280Z,19.9
2022-11-28T14:54:37.189Z,19.9
2022-11-28T14:59:37.291Z,20.1
2022-11-28T15:04:37.238Z,19.9
2022-11-28T15:09:37.368Z,20.1
2022-11-28T15:14:37.215Z,21
2022-11-28T15:19:37.234Z,21.5
2022-11-28T15:24:37.112Z,21.5
2022-11-28T15:29:37.133Z,22.1
2022-11-28T15:34:37.116Z,22.1
2022-11-28T15:39:37.168Z,22.1
2022-11-28T15:44:37.393Z,22.4
2022-11-28T15:49:37.161Z,23.9
2022-11-28T15:54:37.190Z,24
2022-11-28T15:59:37.367Z,24
2022-11-28T16:04:37.160Z,24.3
2022-11-28T16:09:37.178Z,24.6
2022-11-28T16:14:37.328Z,25.2
2022-11-28T16:19:37.273Z,25.4
2022-11-28T16:24:40.287Z,25.4
2022-11-28T16:29:37.166Z,25.6
2022-11-28T16:34:37.169Z,26.1
2022-11-28T16:39:38.159Z,39.5
2022-11-28T16:44:37.269Z,40.5
2022-11-28T16:49:37.178Z,40.5
2022-11-28T16:54:37.162Z,40.5
2022-11-28T16:59:37.279Z,40.5
2022-11-28T17:04:37.247Z,32.3
2022-11-28T17:09:37.301Z,31.3
2022-11-28T17:14:37.177Z,30.3
2022-11-28T17:19:37.160Z,29.3
2022-11-28T17:24:37.122Z,29.3
2022-11-28T17:29:37.207Z,30.3
2022-11-28T17:34:37.128Z,31.3
2022-11-28T17:39:37.206Z,31.3
2022-11-28T17:44:37.151Z,31.5
2022-11-28T17:49:39.623Z,31.5
2022-11-28T17:54:37.159Z,31.5
2022-11-28T17:59:37.189Z,31.5
2022-11-28T18:04:37.324Z,31.5
2022-11-28T18:09:37.261Z,31.6
2022-11-28T18:14:40.176Z,31.6
2022-11-28T18:19:37.177Z,30.8
2022-11-28T18:24:37.191Z,30.8
2022-11-28T18:29:37.137Z,30.8
2022-11-28T18:34:37.185Z,29.8
2022-11-28T18:39:37.154Z,29.8
2022-11-28T18:44:37.142Z,29.8
2022-11-28T18:49:37.145Z,29.8
2022-11-28T18:54:37.129Z,30
2022-11-28T18:59:37.305Z,30
2022-11-28T19:04:37.188Z,30.6
2022-11-28T19:09:37.208Z,30.6
2022-11-28T19:14:37.190Z,30.6
2022-11-28T19:19:37.317Z,30.3
2022-11-28T19:24:37.196Z,29.8
2022-11-28T19:29:37.221Z,28.4
2022-11-28T19:34:37.273Z,28.4
2022-11-28T19:39:37.322Z,28.3
2022-11-28T19:44:37.133Z,28.3
2022-11-28T19:49:37.252Z,28.3
2022-11-28T19:54:37.197Z,28.3
2022-11-28T19:59:37.209Z,28.3
2022-11-28T20:04:37.168Z,27.1
2022-11-28T20:09:37.253Z,26.4
2022-11-28T20:14:37.141Z,26.4
2022-11-28T20:19:37.148Z,26.4
2022-11-28T20:24:37.184Z,26.4
2022-11-28T20:29:37.134Z,26.4
2022-11-28T20:34:37.497Z,26.4
2022-11-28T20:39:37.251Z,26.5
2022-11-28T20:44:37.174Z,26.5
2022-11-28T20:49:37.161Z,26.5
2022-11-28T20:54:37.169Z,26.6
2022-11-28T20:59:37.324Z,26.6
2022-11-28T21:04:37.234Z,26.6
2022-11-28T21:09:37.202Z,26.6
2022-11-28T21:14:37.245Z,26.6
2022-11-28T21:19:37.218Z,70.3
2022-11-28T21:24:37.177Z,70.3
2022-11-28T21:29:37.166Z,70.3
2022-11-28T21:34:37.181Z,70.3
2022-11-28T21:39:37.201Z,44.8
2022-11-28T21:44:37.184Z,26.3
2022-11-28T21:49:37.164Z,26.3
2022-11-28T21:54:37.172Z,26
2022-11-28T21:59:37.402Z,26
2022-11-28T22:04:37.212Z,26
2022-11-28T22:09:37.184Z,26
2022-11-28T22:14:38.196Z,25.5
2022-11-28T22:19:37.197Z,25.5
2022-11-28T22:24:37.365Z,25.5
2022-11-28T22:29:37.178Z,25.5
2022-11-28T22:34:41.705Z,25.5
2022-11-28T22:39:37.185Z,26.4
2022-11-28T22:44:37.199Z,26.4
2022-11-28T22:49:37.222Z,26.4
2022-11-28T22:54:37.213Z,26.5
2022-11-28T22:59:37.267Z,26.7
2022-11-28T23:04:37.211Z,26.7
2022-11-28T23:09:37.280Z,26.9
2022-11-28T23:14:37.247Z,27.4
2022-11-28T23:19:37.235Z,27.9
2022-11-28T23:24:37.220Z,27.9
2022-11-28T23:29:37.209Z,27.9
2022-11-28T23:34:37.186Z,27.4
2022-11-28T23:39:37.208Z,27.3
2022-11-28T23:44:37.216Z,27.3
2022-11-28T23:49:37.238Z,26.8
2022-11-28T23:54:37.220Z,26.6
2022-11-28T23:59:37.388Z,26.6
